Time;durP1;ratioP1;P1;durP2;ratioP2;P2;SDS_P1;SDS_P2;PMS_P1;PMS_P2;Temp;Humidity;BMP_temperature;BMP_pressure;BME280_temperature;BME280_humidity;BME280_pressure;Samples;Min_cycle;Max_cycle;Signal;HPM_P1;HPM_P2
2023/10/31 00:01:00;;;;;;;;;5.25;5.25;;;;;19.47;100.00;97449.00;6189323;28;96551;-64
2023/10/31 00:04:04;;;;;;;;;6.20;6.00;;;;;19.43;100.00;97442.53;6176783;28;97073;-64
2023/10/31 00:07:07;;;;;;;;;6.00;6.00;;;;;19.35;100.00;97430.41;6176104;28;96669;-64
2023/10/31 00:10:11;;;;;;;;;4.00;4.00;;;;;19.42;100.00;97436.25;6160586;28;96738;-64
2023/10/31 00:13:15;;;;;;;;;5.00;5.00;;;;;19.47;100.00;97443.53;6161912;28;98596;-63
2023/10/31 00:16:18;;;;;;;;;10.20;9.00;;;;;19.48;100.00;97441.63;6192079;28;97173;-66
2023/10/31 00:19:22;;;;;;;;;5.80;4.80;;;;;19.50;100.00;97428.47;6187646;28;96692;-68
2023/10/31 00:22:25;;;;;;;;;5.20;5.20;;;;;19.44;100.00;97460.59;6189538;28;96462;-67
2023/10/31 00:25:29;;;;;;;;;6.00;6.00;;;;;19.39;100.00;97456.03;6197300;28;96756;-68
2023/10/31 00:28:32;;;;;;;;;7.40;6.60;;;;;19.37;100.00;97454.72;6164757;28;96614;-67
2023/10/31 00:31:36;;;;;;;;;5.00;5.00;;;;;19.33;100.00;97445.53;6188991;28;96485;-68
2023/10/31 00:34:39;;;;;;;;;6.00;5.00;;;;;19.38;100.00;97445.41;6174814;28;96609;-67
2023/10/31 00:37:42;;;;;;;;;6.00;5.50;;;;;19.48;100.00;97447.09;6162891;28;96488;-67
2023/10/31 00:40:46;;;;;;;;;4.20;4.00;;;;;19.40;100.00;97441.22;6185266;28;96368;-67
2023/10/31 00:43:50;;;;;;;;;3.40;3.40;;;;;19.42;100.00;97440.91;6186288;28;97117;-67
2023/10/31 00:46:53;;;;;;;;;6.50;6.00;;;;;19.41;100.00;97429.19;6204590;28;96977;-67
2023/10/31 00:49:56;;;;;;;;;6.40;6.40;;;;;19.45;100.00;97419.25;6189159;28;96956;-68
2023/10/31 00:52:59;;;;;;;;;5.00;5.00;;;;;19.45;100.00;97416.53;6183703;28;96867;-68
2023/10/31 00:56:05;;;;;;;;;5.25;5.25;;;;;19.47;100.00;97410.75;6201370;28;96771;-67
2023/10/31 00:59:08;;;;;;;;;4.40;4.40;;;;;19.49;100.00;97408.53;6161842;28;96701;-67
2023/10/31 01:02:12;;;;;;;;;7.00;7.00;;;;;19.45;100.00;97391.91;6178842;28;96382;-67
2023/10/31 01:05:15;;;;;;;;;5.25;5.00;;;;;19.49;100.00;97392.13;6178712;28;96190;-67
2023/10/31 01:08:18;;;;;;;;;6.80;6.40;;;;;19.51;100.00;97392.59;6163573;28;96400;-68
2023/10/31 01:11:23;;;;;;;;;5.80;5.00;;;;;19.45;100.00;97375.53;6178160;28;97330;-67
2023/10/31 01:14:26;;;;;;;;;7.33;6.33;;;;;19.49;100.00;97367.53;6188574;28;96560;-66
2023/10/31 01:17:29;;;;;;;;;5.00;5.00;;;;;19.46;100.00;97349.00;6187340;28;96536;-67
2023/10/31 01:20:32;;;;;;;;;6.00;6.00;;;;;19.45;100.00;97352.84;6186562;28;96494;-68
2023/10/31 01:23:35;;;;;;;;;6.00;6.00;;;;;19.39;100.00;97338.53;6185318;28;96344;-66
2023/10/31 01:26:40;;;;;;;;;6.00;5.00;;;;;19.35;100.00;97328.53;6162454;28;96974;-66
2023/10/31 01:29:43;;;;;;;;;5.60;5.40;;;;;19.22;100.00;97318.50;6179650;28;96355;-66
2023/10/31 01:32:46;;;;;;;;;5.00;5.00;;;;;19.16;100.00;97322.50;6188285;28;96423;-66
2023/10/31 01:35:51;;;;;;;;;7.00;7.00;;;;;18.98;100.00;97313.41;6187663;28;96728;-66
2023/10/31 01:38:54;;;;;;;;;7.00;6.00;;;;;18.94;100.00;97318.72;6184774;28;97717;-66
2023/10/31 01:41:58;;;;;;;;;5.00;5.00;;;;;18.92;100.00;97312.75;6183360;28;96371;-66
2023/10/31 01:45:01;;;;;;;;;5.60;5.60;;;;;18.91;100.00;97308.41;6174742;28;96426;-66
2023/10/31 01:48:05;;;;;;;;;5.00;5.00;;;;;18.89;100.00;97309.84;6163812;28;96481;-66
2023/10/31 01:51:10;;;;;;;;;9.20;8.40;;;;;18.91;100.00;97307.63;6162106;28;99022;-66
2023/10/31 01:54:14;;;;;;;;;7.50;6.50;;;;;18.95;100.00;97300.41;6168757;28;96488;-66
2023/10/31 01:57:22;;;;;;;;;7.25;6.25;;;;;18.88;100.00;97280.91;6153361;28;96864;-66
2023/10/31 02:00:26;;;;;;;;;7.50;6.50;;;;;18.60;100.00;97280.31;6175608;28;96272;-66
2023/10/31 02:03:29;;;;;;;;;5.33;5.33;;;;;18.36;100.00;97274.34;6159119;28;96732;-66
2023/10/31 02:06:32;;;;;;;;;4.60;4.60;;;;;18.29;100.00;97273.97;6178584;28;96968;-66
2023/10/31 02:09:35;;;;;;;;;7.00;7.00;;;;;18.37;100.00;97259.59;6184490;28;96603;-65
2023/10/31 02:12:40;;;;;;;;;6.00;6.00;;;;;18.43;100.00;97241.94;6175228;28;96475;-66
2023/10/31 02:15:43;;;;;;;;;7.60;7.00;;;;;18.55;100.00;97250.41;6184142;28;96506;-66
2023/10/31 02:18:47;;;;;;;;;5.20;4.20;;;;;18.66;100.00;97248.22;6186739;28;96286;-66
2023/10/31 02:21:51;;;;;;;;;4.00;3.80;;;;;18.84;100.00;97241.72;6170839;28;96446;-66
2023/10/31 02:24:55;;;;;;;;;5.00;5.00;;;;;18.94;100.00;97239.53;6169600;28;96708;-66
2023/10/31 02:27:58;;;;;;;;;7.00;6.60;;;;;18.97;100.00;97230.69;6184770;28;97416;-66
2023/10/31 02:31:01;;;;;;;;;5.00;5.00;;;;;18.87;100.00;97211.84;6203408;28;96670;-66
2023/10/31 02:34:05;;;;;;;;;5.50;5.50;;;;;18.74;100.00;97214.69;6195579;28;96778;-63
2023/10/31 02:37:09;;;;;;;;;6.00;6.00;;;;;18.64;100.00;97221.22;6176966;28;96687;-63
2023/10/31 02:40:13;;;;;;;;;5.00;5.00;;;;;18.73;100.00;97216.63;6191606;28;96261;-63
2023/10/31 02:43:16;;;;;;;;;4.00;3.00;;;;;18.77;100.00;97197.69;6174292;28;97178;-63
2023/10/31 02:46:19;;;;;;;;;4.50;4.50;;;;;18.80;100.00;97183.41;6189557;28;96468;-62
2023/10/31 02:49:23;;;;;;;;;4.00;4.00;;;;;18.85;100.00;97189.53;6191516;28;96435;-63
2023/10/31 02:52:28;;;;;;;;;5.00;5.00;;;;;18.94;100.00;97184.09;6190079;28;96810;-63
2023/10/31 02:55:31;;;;;;;;;7.50;7.00;;;;;19.03;100.00;97185.72;6180867;28;97036;-63
2023/10/31 02:58:34;;;;;;;;;5.00;4.75;;;;;19.20;100.00;97182.25;6182184;28;96323;-63
2023/10/31 03:01:37;;;;;;;;;7.00;6.00;;;;;19.46;100.00;97194.03;6171041;28;96648;-63
2023/10/31 03:04:40;;;;;;;;;5.50;5.50;;;;;19.63;100.00;97186.97;6189928;28;96285;-62
2023/10/31 03:07:45;;;;;;;;;6.00;6.00;;;;;19.69;100.00;97196.63;6191298;28;96430;-63
2023/10/31 03:10:50;;;;;;;;;3.00;3.00;;;;;19.75;100.00;97222.66;6191456;28;96571;-63
2023/10/31 03:13:56;;;;;;;;;5.60;5.60;;;;;19.79;100.00;97220.94;6190910;28;96574;-63
2023/10/31 03:16:59;;;;;;;;;5.20;5.20;;;;;19.82;100.00;97231.22;6169522;28;96353;-63
2023/10/31 03:20:02;;;;;;;;;6.25;5.25;;;;;19.81;100.00;97230.41;6182143;28;97272;-63
2023/10/31 03:23:07;;;;;;;;;3.80;3.00;;;;;19.82;100.00;97236.69;6168069;28;96488;-63
2023/10/31 03:26:10;;;;;;;;;5.60;5.00;;;;;19.75;100.00;97226.22;6178099;28;96619;-63
2023/10/31 03:29:13;;;;;;;;;7.00;6.00;;;;;19.76;100.00;97222.34;6165878;28;96382;-63
2023/10/31 03:32:16;;;;;;;;;5.00;4.00;;;;;19.70;100.00;97212.69;6172385;28;97117;-63
2023/10/31 03:35:19;;;;;;;;;5.60;5.60;;;;;19.58;100.00;97198.88;6182911;28;96794;-63
2023/10/31 03:38:24;;;;;;;;;4.33;4.33;;;;;19.61;100.00;97194.69;6164470;28;96356;-63
2023/10/31 03:41:27;;;;;;;;;5.00;4.40;;;;;19.53;100.00;97162.69;6163758;28;98463;-63
2023/10/31 03:44:30;;;;;;;;;5.00;5.00;;;;;19.47;100.00;97170.25;6163751;28;96354;-66
2023/10/31 03:47:33;;;;;;;;;4.50;4.00;;;;;19.44;100.00;97160.78;6181473;28;96833;-67
2023/10/31 03:50:36;;;;;;;;;4.00;4.00;;;;;19.43;100.00;97171.97;6190421;28;96447;-67
2023/10/31 03:53:41;;;;;;;;;5.00;4.00;;;;;19.48;100.00;97171.84;6188949;28;96670;-67
2023/10/31 03:56:44;;;;;;;;;5.00;5.00;;;;;19.52;100.00;97172.00;6188130;28;98489;-66
2023/10/31 03:59:48;;;;;;;;;3.00;3.00;;;;;19.48;100.00;97169.13;6187534;28;96468;-66
2023/10/31 04:02:51;;;;;;;;;5.33;5.33;;;;;19.48;100.00;97162.84;6179743;28;96606;-66
2023/10/31 04:05:54;;;;;;;;;6.00;6.00;;;;;19.42;100.00;97168.44;6186337;28;96519;-66
2023/10/31 04:08:59;;;;;;;;;7.50;6.50;;;;;19.41;100.00;97172.28;6188381;28;96473;-66
2023/10/31 04:12:02;;;;;;;;;5.00;4.60;;;;;19.45;100.00;97165.09;6170259;28;98546;-66
2023/10/31 04:15:06;;;;;;;;;5.00;5.00;;;;;19.44;100.00;97157.22;6184906;28;97658;-67
2023/10/31 04:18:09;;;;;;;;;5.00;5.00;;;;;19.40;100.00;97153.50;6169672;28;97722;-66
2023/10/31 04:21:12;;;;;;;;;6.00;6.00;;;;;19.33;100.00;97137.59;6163666;28;96828;-67
2023/10/31 04:24:17;;;;;;;;;6.00;5.60;;;;;19.13;100.00;97131.94;6165076;28;96440;-67
2023/10/31 04:27:20;;;;;;;;;7.00;7.00;;;;;19.24;100.00;97128.56;6172786;28;97507;-67
2023/10/31 04:30:23;;;;;;;;;5.00;5.00;;;;;19.26;100.00;97122.78;6185702;28;97533;-67
2023/10/31 04:33:26;;;;;;;;;6.00;6.00;;;;;19.40;100.00;97116.03;6170804;28;96937;-67
2023/10/31 04:36:29;;;;;;;;;7.00;6.40;;;;;19.46;100.00;97117.50;6164435;28;97011;-67
2023/10/31 04:39:34;;;;;;;;;6.00;4.00;;;;;19.47;100.00;97101.91;6184236;28;96520;-67
2023/10/31 04:42:39;;;;;;;;;4.00;4.00;;;;;19.69;100.00;97109.16;6164894;28;96389;-66
2023/10/31 04:45:43;;;;;;;;;3.00;3.00;;;;;19.76;100.00;97096.59;6167037;28;97180;-67
2023/10/31 04:48:46;;;;;;;;;5.20;5.20;;;;;19.75;100.00;97107.84;6166871;28;96502;-67
2023/10/31 04:51:49;;;;;;;;;4.20;4.20;;;;;19.92;100.00;97102.34;6178283;28;96495;-67
2023/10/31 04:54:54;;;;;;;;;6.00;5.80;;;;;20.02;100.00;97085.59;6180442;28;96320;-67
2023/10/31 04:57:57;;;;;;;;;5.60;5.60;;;;;20.13;100.00;97097.81;6200806;28;96377;-67
2023/10/31 05:01:00;;;;;;;;;8.00;7.00;;;;;20.27;100.00;97081.97;6167945;28;96325;-67
2023/10/31 05:04:03;;;;;;;;;4.00;4.00;;;;;20.37;100.00;97090.97;6163243;28;97030;-67
2023/10/31 05:07:15;;;;;;;;;5.25;5.25;;;;;20.58;100.00;97091.84;6173200;28;96293;-67
2023/10/31 05:10:19;;;;;;;;;7.00;7.00;;;;;20.73;100.00;97094.00;6188569;28;96368;-67
2023/10/31 05:13:22;;;;;;;;;6.00;6.00;;;;;20.92;100.00;97096.31;6182997;28;96514;-67
2023/10/31 05:16:25;;;;;;;;;7.50;7.00;;;;;21.09;100.00;97104.44;6183682;28;96873;-67
2023/10/31 05:19:28;;;;;;;;;4.25;4.25;;;;;21.24;100.00;97105.81;6177789;28;99043;-67
2023/10/31 05:22:31;;;;;;;;;5.80;5.80;;;;;21.38;100.00;97120.84;6179041;28;97511;-66
2023/10/31 05:25:37;;;;;;;;;4.00;4.00;;;;;21.51;100.00;97124.44;6186491;28;97255;-67
2023/10/31 05:28:40;;;;;;;;;4.20;4.20;;;;;21.70;100.00;97118.50;6184215;28;96982;-67
2023/10/31 05:31:44;;;;;;;;;4.00;4.00;;;;;21.85;100.00;97120.59;6167117;28;98770;-67
2023/10/31 05:34:47;;;;;;;;;5.00;5.00;;;;;21.97;99.15;97120.69;6185251;28;96748;-67
2023/10/31 05:37:50;;;;;;;;;4.40;3.60;;;;;22.14;97.46;97128.72;6185808;28;96498;-67
2023/10/31 05:40:54;;;;;;;;;5.60;4.60;;;;;22.26;96.43;97119.72;6184951;28;98296;-67
2023/10/31 05:43:58;;;;;;;;;6.00;5.60;;;;;22.38;94.88;97134.25;6178001;28;96853;-67
2023/10/31 05:47:01;;;;;;;;;5.00;5.00;;;;;22.50;94.81;97147.22;6186012;28;96764;-67
2023/10/31 05:50:05;;;;;;;;;3.00;2.00;;;;;22.56;93.33;97140.38;6182711;28;96126;-68
2023/10/31 05:53:09;;;;;;;;;3.60;3.60;;;;;22.65;94.59;97112.78;6177671;28;96675;-67
2023/10/31 05:56:14;;;;;;;;;5.40;5.40;;;;;22.68;94.74;97123.88;6184648;28;97533;-67
2023/10/31 05:59:17;;;;;;;;;5.00;5.00;;;;;22.68;94.03;97128.59;6183766;28;96614;-68
2023/10/31 06:02:20;;;;;;;;;6.00;6.00;;;;;22.69;93.69;97094.47;6184946;28;96746;-66
2023/10/31 06:05:23;;;;;;;;;3.00;2.67;;;;;22.75;93.41;97115.13;6185576;28;96468;-69
2023/10/31 06:08:28;;;;;;;;;5.40;5.40;;;;;22.76;96.04;97109.28;6183477;28;96914;-69
2023/10/31 06:11:33;;;;;;;;;5.60;5.00;;;;;22.57;94.80;97111.78;6186082;28;96249;-69
2023/10/31 06:14:36;;;;;;;;;4.00;3.60;;;;;22.62;95.02;97119.78;6183733;28;98523;-69
2023/10/31 06:17:39;;;;;;;;;8.00;7.40;;;;;22.56;95.25;97128.59;6173856;28;96723;-70
2023/10/31 06:20:42;;;;;;;;;5.00;5.00;;;;;22.59;96.09;97097.69;6184065;28;96593;-69
2023/10/31 06:23:46;;;;;;;;;4.00;4.00;;;;;22.56;96.11;97090.94;6184559;28;96466;-68
2023/10/31 06:26:50;;;;;;;;;4.00;4.00;;;;;22.67;97.77;97091.28;6181044;28;96935;-69
2023/10/31 06:29:55;;;;;;;;;5.40;5.00;;;;;22.66;96.67;97097.94;6181658;28;96317;-70
2023/10/31 06:33:18;;;;;;;;;4.40;4.40;;;;;22.59;97.05;97128.69;6187019;28;96494;-70
2023/10/31 06:36:21;;;;;;;;;6.00;5.00;;;;;22.59;97.46;97095.75;6182450;28;96843;-69
2023/10/31 06:39:24;;;;;;;;;4.00;3.00;;;;;22.42;97.58;97110.50;6162560;28;98782;-69
2023/10/31 06:42:29;;;;;;;;;5.00;5.00;;;;;22.44;97.36;97097.22;6182814;28;96849;-70
2023/10/31 06:45:32;;;;;;;;;5.20;5.00;;;;;22.50;97.90;97103.28;6185943;28;96840;-69
2023/10/31 06:48:35;;;;;;;;;4.25;4.00;;;;;22.57;97.40;97108.22;6185974;28;96535;-70
2023/10/31 06:51:38;;;;;;;;;3.40;2.60;;;;;22.55;96.88;97113.25;6186911;28;96234;-70
2023/10/31 06:54:41;;;;;;;;;5.00;5.00;;;;;22.48;96.73;97116.53;6172699;28;99179;-69
2023/10/31 06:57:45;;;;;;;;;4.00;4.00;;;;;22.46;97.12;97118.84;6185562;28;96691;-70
2023/10/31 07:00:49;;;;;;;;;4.00;3.80;;;;;22.53;97.28;97118.28;6184391;28;96713;-70
2023/10/31 07:03:52;;;;;;;;;4.40;4.40;;;;;22.50;97.35;97136.25;6186365;28;96454;-69
2023/10/31 07:06:57;;;;;;;;;5.00;4.60;;;;;22.47;97.62;97139.69;6187246;28;96639;-70
2023/10/31 07:10:00;;;;;;;;;4.00;4.00;;;;;22.40;98.56;97123.75;6187473;28;96456;-68
2023/10/31 07:13:05;;;;;;;;;5.00;5.00;;;;;22.32;99.48;97121.94;6176651;28;97548;-70
2023/10/31 07:16:08;;;;;;;;;2.20;2.20;;;;;22.33;99.27;97133.72;6183065;28;98405;-70
2023/10/31 07:19:12;;;;;;;;;3.00;3.00;;;;;22.44;99.79;97121.94;6188642;28;96327;-69
2023/10/31 07:22:15;;;;;;;;;4.00;3.40;;;;;22.49;99.85;97151.09;6187732;28;96715;-70
2023/10/31 07:25:18;;;;;;;;;2.00;1.75;;;;;22.35;100.00;97151.44;6189932;28;96734;-70
2023/10/31 07:28:23;;;;;;;;;3.20;3.00;;;;;22.24;100.00;97163.97;6189174;28;96364;-70
2023/10/31 07:31:26;;;;;;;;;4.00;4.00;;;;;22.45;100.00;97159.22;6189044;28;96676;-69
2023/10/31 07:34:30;;;;;;;;;4.00;4.00;;;;;22.34;100.00;97140.78;6186898;28;98424;-70
2023/10/31 07:37:33;;;;;;;;;2.00;2.00;;;;;22.37;100.00;97131.88;6189169;28;96456;-70
2023/10/31 07:40:39;;;;;;;;;4.00;4.00;;;;;22.31;100.00;97141.47;6189166;28;96623;-69
2023/10/31 07:43:43;;;;;;;;;5.00;5.00;;;;;22.35;100.00;97176.13;6168860;28;96382;-70
2023/10/31 07:46:46;;;;;;;;;2.80;2.80;;;;;22.29;100.00;97146.50;6181905;28;97723;-69
2023/10/31 07:49:49;;;;;;;;;4.00;3.75;;;;;22.42;100.00;97154.44;6190476;28;96552;-70
2023/10/31 07:52:53;;;;;;;;;3.80;2.60;;;;;22.25;100.00;97162.03;6189104;28;96930;-69
2023/10/31 07:55:56;;;;;;;;;3.00;3.00;;;;;22.22;100.00;97181.94;6189220;28;98447;-69
2023/10/31 07:59:00;;;;;;;;;3.40;3.00;;;;;22.32;100.00;97179.56;6187269;28;96688;-69
2023/10/31 08:02:04;;;;;;;;;3.80;3.20;;;;;22.27;100.00;97185.28;6187092;28;96716;-69
2023/10/31 08:05:09;;;;;;;;;3.00;3.00;;;;;22.43;100.00;97188.19;6187046;28;96530;-68
2023/10/31 08:08:12;;;;;;;;;5.00;5.00;;;;;22.43;100.00;97188.19;6174174;28;96479;-69
2023/10/31 08:11:15;;;;;;;;;2.80;2.80;;;;;22.39;100.00;97187.25;6186547;28;96885;-69
2023/10/31 08:14:21;;;;;;;;;3.00;3.00;;;;;22.42;100.00;97186.56;6186663;28;96521;-69
2023/10/31 08:17:28;;;;;;;;;3.00;2.50;;;;;22.44;100.00;97196.06;6175815;28;96275;-70
2023/10/31 08:20:33;;;;;;;;;3.80;3.80;;;;;22.33;100.00;97175.66;6190432;28;96507;-70
2023/10/31 08:23:37;;;;;;;;;3.00;2.00;;;;;22.14;100.00;97163.63;6188983;28;97180;-69
2023/10/31 08:26:40;;;;;;;;;3.40;3.40;;;;;21.99;100.00;97165.06;6171848;28;97395;-70
2023/10/31 08:29:45;;;;;;;;;3.00;3.00;;;;;21.90;100.00;97153.31;6187877;28;96381;-69
2023/10/31 08:32:48;;;;;;;;;8.20;8.00;;;;;21.87;100.00;97132.84;6174591;28;97188;-70
2023/10/31 08:35:51;;;;;;;;;4.80;4.00;;;;;21.82;100.00;97152.25;6187780;28;96455;-69
2023/10/31 08:38:54;;;;;;;;;4.80;4.20;;;;;21.95;100.00;97158.63;6188064;28;96626;-69
2023/10/31 08:41:59;;;;;;;;;6.20;6.00;;;;;21.90;100.00;97154.13;6188045;28;96741;-68
2023/10/31 08:45:04;;;;;;;;;8.00;8.00;;;;;21.96;100.00;97143.78;6186549;28;98387;-69
2023/10/31 08:48:07;;;;;;;;;6.00;6.00;;;;;21.96;100.00;97158.28;6168053;28;97452;-69
2023/10/31 08:51:10;;;;;;;;;8.00;8.00;;;;;22.01;100.00;97190.19;6187624;28;96671;-69
2023/10/31 08:54:13;;;;;;;;;6.75;5.75;;;;;22.07;100.00;97180.63;6186891;28;96909;-69
2023/10/31 08:57:16;;;;;;;;;5.00;5.00;;;;;22.22;100.00;97174.50;6182291;28;96789;-69
2023/10/31 09:00:21;;;;;;;;;5.80;5.00;;;;;22.24;100.00;97174.16;6186356;28;96910;-69
2023/10/31 09:03:24;;;;;;;;;6.00;5.50;;;;;22.21;100.00;97183.88;6184502;28;96286;-69
2023/10/31 09:06:27;;;;;;;;;3.00;2.40;;;;;22.30;100.00;97170.06;6184932;28;96640;-69
2023/10/31 09:09:30;;;;;;;;;4.00;4.00;;;;;22.42;100.00;97187.38;6186951;28;97139;-69
2023/10/31 09:12:33;;;;;;;;;5.60;5.00;;;;;22.15;100.00;97165.22;6188821;28;96598;-69
2023/10/31 09:15:38;;;;;;;;;5.50;5.25;;;;;22.40;100.00;97195.16;6188152;28;96341;-70
2023/10/31 09:18:43;;;;;;;;;5.00;5.00;;;;;22.47;100.00;97202.84;6184866;28;96371;-69
2023/10/31 09:21:46;;;;;;;;;5.60;5.60;;;;;22.41;100.00;97209.69;6170697;28;96696;-69
2023/10/31 09:24:49;;;;;;;;;5.00;4.40;;;;;22.55;100.00;97210.16;6175908;28;96465;-69
2023/10/31 09:27:52;;;;;;;;;5.00;5.00;;;;;22.53;100.00;97225.41;6187266;28;98672;-69
2023/10/31 09:30:59;;;;;;;;;4.60;4.60;;;;;22.54;100.00;97224.22;6188558;28;96510;-69
2023/10/31 09:34:03;;;;;;;;;3.50;3.00;;;;;22.60;100.00;97217.38;6186882;28;96699;-69
2023/10/31 09:37:06;;;;;;;;;5.00;4.00;;;;;22.66;100.00;97221.53;6187450;28;98152;-69
2023/10/31 09:40:11;;;;;;;;;4.00;4.00;;;;;22.66;100.00;97227.03;6185160;28;98943;-68
2023/10/31 09:43:14;;;;;;;;;4.50;4.50;;;;;22.60;100.00;97231.13;6175894;28;96906;-69
2023/10/31 09:46:18;;;;;;;;;5.40;5.00;;;;;22.59;100.00;97235.00;6187628;28;96432;-69
2023/10/31 09:49:22;;;;;;;;;4.00;3.75;;;;;22.59;100.00;97235.00;6171140;28;96851;-68
2023/10/31 09:52:26;;;;;;;;;4.20;4.00;;;;;22.52;100.00;97234.78;6188376;28;96379;-69
2023/10/31 09:55:32;;;;;;;;;5.00;4.00;;;;;22.66;100.00;97233.31;6187940;28;96297;-69
2023/10/31 09:58:36;;;;;;;;;5.75;5.75;;;;;22.75;100.00;97242.28;6168785;28;96821;-69
2023/10/31 10:01:40;;;;;;;;;3.00;3.00;;;;;22.82;100.00;97241.75;6176998;28;96649;-68
2023/10/31 10:04:43;;;;;;;;;6.00;6.00;;;;;22.82;100.00;97241.75;6174984;28;98607;-69
2023/10/31 10:07:46;;;;;;;;;4.20;3.80;;;;;22.82;100.00;97248.00;6185986;28;97041;-69
2023/10/31 10:10:51;;;;;;;;;3.00;2.80;;;;;22.85;100.00;97246.56;6185869;28;96752;-69
2023/10/31 10:13:54;;;;;;;;;5.00;3.00;;;;;22.81;100.00;97251.13;6184818;28;96891;-69
2023/10/31 10:16:59;;;;;;;;;4.40;3.00;;;;;22.79;100.00;97245.16;6179682;28;96979;-68
2023/10/31 10:20:10;;;;;;;;;6.40;6.00;;;;;22.91;100.00;97250.69;6173396;28;96851;-69
2023/10/31 10:23:13;;;;;;;;;8.40;7.40;;;;;22.94;100.00;97262.94;6188284;28;96845;-69
2023/10/31 10:26:16;;;;;;;;;4.75;4.75;;;;;22.99;100.00;97260.75;6186182;28;96686;-69
2023/10/31 10:29:20;;;;;;;;;5.00;4.25;;;;;22.93;100.00;97261.31;6180568;28;96561;-69
2023/10/31 10:32:24;;;;;;;;;5.00;5.00;;;;;22.89;100.00;97269.44;6186166;28;96289;-69
2023/10/31 10:35:28;;;;;;;;;5.20;4.80;;;;;22.83;100.00;97257.06;6179570;28;96854;-69
2023/10/31 10:38:36;;;;;;;;;7.00;6.25;;;;;22.77;100.00;97266.69;6186346;28;96557;-69
2023/10/31 10:41:43;;;;;;;;;6.00;5.00;;;;;22.70;100.00;97261.75;6187724;28;96366;-69
2023/10/31 10:44:51;;;;;;;;;5.25;5.25;;;;;22.71;100.00;97243.31;6187571;28;96636;-65
2023/10/31 10:48:00;;;;;;;;;6.20;6.20;;;;;23.06;100.00;97246.47;6188007;28;96725;-65
2023/10/31 10:51:09;;;;;;;;;5.25;5.25;;;;;24.51;100.00;97248.97;6199233;28;96220;-65
2023/10/31 10:54:19;;;;;;;;;7.00;6.00;;;;;25.52;100.00;97261.41;6169789;28;97029;-65
2023/10/31 10:57:36;;;;;;;;;7.00;6.60;;;;;25.35;100.00;97277.19;6191272;28;96928;-66
2023/10/31 11:00:41;;;;;;;;;5.40;5.40;;;;;24.77;100.00;97289.03;6192253;28;96608;-65
2023/10/31 11:03:46;;;;;;;;;5.00;5.00;;;;;24.25;100.00;97297.38;6185848;28;96894;-65
2023/10/31 11:06:50;;;;;;;;;6.00;5.60;;;;;23.89;100.00;97292.75;6192711;28;96319;-65
2023/10/31 11:09:54;;;;;;;;;5.75;5.75;;;;;23.74;100.00;97303.31;6191182;28;96532;-66
2023/10/31 11:12:57;;;;;;;;;4.00;4.00;;;;;23.75;100.00;97293.09;6190887;28;96603;-65
2023/10/31 11:16:04;;;;;;;;;7.00;5.00;;;;;23.71;100.00;97293.00;6172800;28;96890;-65
2023/10/31 11:19:10;;;;;;;;;4.60;4.60;;;;;23.71;100.00;97304.00;6190459;28;96664;-66
2023/10/31 11:22:13;;;;;;;;;5.00;5.00;;;;;23.26;100.00;97295.06;6192304;28;96420;-65
2023/10/31 11:25:20;;;;;;;;;5.00;5.00;;;;;23.03;100.00;97299.34;6189752;28;96285;-65
2023/10/31 11:28:34;;;;;;;;;5.60;5.60;;;;;22.67;100.00;97311.84;6186484;28;96667;-66
2023/10/31 11:31:39;;;;;;;;;6.40;5.40;;;;;22.24;100.00;97312.22;6192441;28;96276;-66
2023/10/31 11:34:44;;;;;;;;;6.00;6.00;;;;;22.00;100.00;97293.66;6191967;28;96448;-65
2023/10/31 11:37:49;;;;;;;;;6.20;5.00;;;;;21.83;100.00;97301.19;6191587;28;96666;-66
2023/10/31 11:41:01;;;;;;;;;6.00;5.80;;;;;21.84;100.00;97311.84;6189911;28;97595;-65
2023/10/31 11:44:05;;;;;;;;;6.00;5.00;;;;;21.79;100.00;97305.75;6191767;28;96795;-66
2023/10/31 11:47:16;;;;;;;;;5.00;4.40;;;;;21.67;100.00;97303.72;6189351;28;96563;-65
2023/10/31 11:50:23;;;;;;;;;5.00;5.00;;;;;21.52;100.00;97313.31;6188531;28;96587;-66
2023/10/31 11:53:29;;;;;;;;;6.00;6.00;;;;;21.36;100.00;97305.97;6185244;28;96671;-65
2023/10/31 11:56:32;;;;;;;;;4.00;4.00;;;;;21.39;100.00;97321.78;6189807;28;97184;-69
2023/10/31 11:59:37;;;;;;;;;4.00;4.00;;;;;21.38;100.00;97318.22;6181125;28;96497;-69
2023/10/31 12:02:40;;;;;;;;;4.00;3.75;;;;;21.39;100.00;97317.09;6186777;28;96427;-68
2023/10/31 12:05:53;;;;;;;;;3.00;3.00;;;;;21.43;100.00;97314.50;6186238;28;96316;-69
2023/10/31 12:09:00;;;;;;;;;4.50;4.00;;;;;21.35;100.00;97299.72;6187564;28;96676;-69
2023/10/31 12:12:04;;;;;;;;;7.25;7.25;;;;;21.30;100.00;97288.13;6181255;28;98609;-69
2023/10/31 12:15:07;;;;;;;;;6.00;5.75;;;;;21.35;100.00;97288.75;6184797;28;96440;-69
2023/10/31 12:18:11;;;;;;;;;4.60;4.60;;;;;21.42;100.00;97263.53;6188766;28;97206;-69
2023/10/31 12:21:15;;;;;;;;;5.00;5.00;;;;;21.50;100.00;97249.00;6171629;28;96514;-69
2023/10/31 12:24:19;;;;;;;;;5.00;5.00;;;;;21.48;100.00;97240.28;6205406;28;96267;-69
2023/10/31 12:27:22;;;;;;;;;5.40;5.00;;;;;21.50;100.00;97233.31;6188772;28;96874;-69
2023/10/31 12:30:28;;;;;;;;;3.00;3.00;;;;;21.49;100.00;97239.97;6187255;28;96274;-69
2023/10/31 12:33:31;;;;;;;;;4.60;4.60;;;;;21.53;100.00;97223.63;6188112;28;96744;-69
2023/10/31 12:36:37;;;;;;;;;4.25;4.25;;;;;21.59;100.00;97234.09;6188151;28;96271;-69
2023/10/31 12:39:40;;;;;;;;;3.80;3.80;;;;;21.61;100.00;97251.00;6187227;28;97308;-69
2023/10/31 12:42:44;;;;;;;;;4.00;4.00;;;;;21.69;100.00;97241.13;6185755;28;96876;-69
2023/10/31 12:45:47;;;;;;;;;7.40;7.00;;;;;21.88;100.00;97240.66;6182448;28;97814;-69
2023/10/31 12:48:50;;;;;;;;;2.50;2.50;;;;;21.99;100.00;97237.19;6162045;28;96719;-69
2023/10/31 12:51:59;;;;;;;;;5.60;5.00;;;;;22.08;100.00;97239.88;6161189;28;98382;-69
2023/10/31 12:55:13;;;;;;;;;3.80;3.80;;;;;22.17;100.00;97250.78;6178923;28;96641;-69
2023/10/31 12:58:21;;;;;;;;;4.00;4.00;;;;;22.14;100.00;97257.72;6163293;28;96870;-69
2023/10/31 13:01:24;;;;;;;;;6.00;6.00;;;;;22.09;100.00;97268.13;6164938;28;96354;-69
2023/10/31 13:04:28;;;;;;;;;5.00;5.00;;;;;22.08;100.00;97275.53;6166875;28;98747;-65
2023/10/31 13:07:33;;;;;;;;;5.25;5.25;;;;;21.98;100.00;97259.50;6191457;28;96892;-65
2023/10/31 13:10:36;;;;;;;;;4.00;3.00;;;;;22.03;100.00;97262.84;6173237;28;99390;-64
2023/10/31 13:13:42;;;;;;;;;4.00;4.00;;;;;22.01;100.00;97251.38;6189487;28;98478;-65
2023/10/31 13:16:45;;;;;;;;;3.75;3.75;;;;;22.00;100.00;97246.22;6188187;28;98580;-65
2023/10/31 13:19:48;;;;;;;;;4.00;3.60;;;;;21.93;100.00;97245.94;6189283;28;96721;-66
2023/10/31 13:22:53;;;;;;;;;4.00;3.20;;;;;21.87;100.00;97244.53;6173511;28;98568;-65
2023/10/31 13:25:56;;;;;;;;;3.00;3.00;;;;;21.80;100.00;97255.22;6190331;28;96344;-65
2023/10/31 13:28:59;;;;;;;;;5.25;5.25;;;;;21.74;100.00;97234.63;6169116;28;96742;-65
2023/10/31 13:32:03;;;;;;;;;5.00;5.00;;;;;21.60;100.00;97243.91;6166111;28;96392;-65
2023/10/31 13:35:08;;;;;;;;;3.00;3.00;;;;;21.46;100.00;97237.84;6167033;28;98963;-65
2023/10/31 13:38:13;;;;;;;;;3.40;3.40;;;;;21.39;100.00;97245.81;6166581;28;96483;-65
2023/10/31 13:41:17;;;;;;;;;5.00;5.00;;;;;21.27;100.00;97251.19;6165998;28;96866;-64
2023/10/31 13:44:20;;;;;;;;;6.00;4.00;;;;;21.18;100.00;97253.19;6162568;28;96806;-64
2023/10/31 13:47:23;;;;;;;;;6.00;5.50;;;;;21.08;100.00;97272.69;6202739;28;96576;-65
2023/10/31 13:50:26;;;;;;;;;5.00;5.00;;;;;20.95;100.00;97263.56;6191202;28;96291;-65
2023/10/31 13:53:31;;;;;;;;;3.00;3.00;;;;;20.84;100.00;97264.25;6190412;28;96581;-64
2023/10/31 13:56:34;;;;;;;;;6.00;5.00;;;;;20.69;100.00;97280.06;6175892;28;96263;-65
2023/10/31 13:59:38;;;;;;;;;5.00;4.00;;;;;20.48;100.00;97259.97;6183636;28;96586;-64
2023/10/31 14:02:41;;;;;;;;;6.00;6.00;;;;;20.32;100.00;97256.16;6171323;28;98675;-65
2023/10/31 14:05:44;;;;;;;;;5.00;4.00;;;;;20.18;100.00;97239.88;6186929;28;96474;-64
2023/10/31 14:08:49;;;;;;;;;6.40;6.00;;;;;20.11;100.00;97245.03;6187060;28;96738;-65
2023/10/31 14:11:52;;;;;;;;;6.75;5.75;;;;;19.99;100.00;97233.94;6183426;28;96381;-65
2023/10/31 14:14:55;;;;;;;;;4.80;4.80;;;;;19.92;100.00;97232.81;6187822;28;96215;-66
2023/10/31 14:17:58;;;;;;;;;5.75;5.75;;;;;19.92;100.00;97230.09;6164741;28;97506;-65